Time;durP1;ratioP1;P1;durP2;ratioP2;P2;SDS_P1;SDS_P2;PMS_P1;PMS_P2;Temp;Humidity;BMP_temperature;BMP_pressure;BME280_temperature;BME280_humidity;BME280_pressure;Samples;Min_cycle;Max_cycle;Signal;HPM_P1;HPM_P2
2024/01/23 00:02:21;;;;;;;25.25;4.10;;;7.70;99.90;;;;;;5083434;28;20633;-42
2024/01/23 00:04:47;;;;;;;23.77;4.18;;;7.60;99.90;;;;;;5082578;28;20186;-44
2024/01/23 00:07:13;;;;;;;20.20;4.43;;;7.60;99.90;;;;;;5083189;28;20209;-42
2024/01/23 00:09:39;;;;;;;16.10;3.30;;;7.50;99.90;;;;;;5083845;28;20182;-39
2024/01/23 00:12:07;;;;;;;19.67;3.47;;;7.50;99.90;;;;;;5082964;28;20914;-43
2024/01/23 00:14:33;;;;;;;25.63;4.25;;;7.50;99.90;;;;;;5083143;28;20262;-43
2024/01/23 00:16:59;;;;;;;18.35;3.95;;;7.50;99.90;;;;;;5083290;28;20225;-40
2024/01/23 00:19:25;;;;;;;19.80;4.43;;;7.40;99.90;;;;;;5083161;28;20239;-38
2024/01/23 00:21:51;;;;;;;26.73;4.53;;;7.40;99.90;;;;;;5083468;28;20565;-40
2024/01/23 00:24:17;;;;;;;28.25;4.07;;;7.40;99.90;;;;;;5082923;28;20190;-47
2024/01/23 00:26:43;;;;;;;26.75;4.60;;;7.40;99.90;;;;;;5081382;28;20291;-42
2024/01/23 00:29:09;;;;;;;23.55;3.67;;;7.30;99.90;;;;;;5082754;28;20182;-39
2024/01/23 00:31:35;;;;;;;26.17;4.22;;;7.30;99.90;;;;;;5083256;28;20642;-39
2024/01/23 00:34:01;;;;;;;25.02;4.65;;;7.30;99.90;;;;;;5083062;28;20261;-43
2024/01/23 00:36:27;;;;;;;10.73;2.75;;;7.30;99.90;;;;;;5082966;28;20369;-42
2024/01/23 00:38:53;;;;;;;34.03;4.60;;;7.30;99.90;;;;;;5082847;28;20185;-39
2024/01/23 00:41:19;;;;;;;25.52;4.80;;;7.40;99.90;;;;;;5082578;28;20194;-39
2024/01/23 00:43:45;;;;;;;29.70;4.15;;;7.30;99.90;;;;;;5081018;28;20198;-44
2024/01/23 00:46:11;;;;;;;22.27;3.65;;;7.40;99.90;;;;;;5081633;28;20263;-40
2024/01/23 00:48:37;;;;;;;27.08;3.90;;;7.40;99.90;;;;;;5081794;28;21310;-42
2024/01/23 00:51:03;;;;;;;23.42;4.45;;;7.40;99.90;;;;;;5081283;28;20221;-42
2024/01/23 00:53:29;;;;;;;24.63;4.22;;;7.40;99.90;;;;;;5082545;28;20268;-39
2024/01/23 00:55:55;;;;;;;14.18;3.50;;;7.40;99.90;;;;;;5081712;28;20265;-39
2024/01/23 00:58:20;;;;;;;27.98;4.15;;;7.40;99.90;;;;;;5081251;28;20190;-39
2024/01/23 01:00:46;;;;;;;22.13;4.40;;;7.40;99.90;;;;;;5080824;28;20186;-42
2024/01/23 01:03:12;;;;;;;24.33;4.47;;;7.40;99.90;;;;;;5082517;28;20213;-45
2024/01/23 01:05:38;;;;;;;20.63;4.00;;;7.40;99.90;;;;;;5081924;28;20218;-42
2024/01/23 01:08:05;;;;;;;18.92;3.63;;;7.40;99.90;;;;;;5081383;28;20185;-49
2024/01/23 01:10:31;;;;;;;15.43;3.65;;;7.40;99.90;;;;;;5081089;28;20235;-42
2024/01/23 01:12:57;;;;;;;16.75;3.83;;;7.40;99.90;;;;;;5081955;28;20645;-45
2024/01/23 01:15:23;;;;;;;19.88;3.88;;;7.40;99.90;;;;;;5080808;28;20202;-42
2024/01/23 01:17:48;;;;;;;16.35;3.65;;;7.40;99.90;;;;;;5082205;28;20226;-43
2024/01/23 01:20:15;;;;;;;22.33;3.97;;;7.30;99.90;;;;;;5062615;28;20199;-44
2024/01/23 01:22:41;;;;;;;24.38;4.32;;;7.30;99.90;;;;;;5081908;28;20190;-43
2024/01/23 01:25:08;;;;;;;27.65;4.22;;;7.30;99.90;;;;;;5081642;28;20201;-45
2024/01/23 01:27:34;;;;;;;29.05;4.25;;;7.30;99.90;;;;;;5081430;28;20185;-42
2024/01/23 01:30:03;;;;;;;29.67;4.20;;;7.20;99.90;;;;;;5082315;28;20344;-42
2024/01/23 01:32:29;;;;;;;15.63;3.08;;;7.20;99.90;;;;;;5081677;28;20178;-38
2024/01/23 01:34:55;;;;;;;19.00;3.42;;;7.20;99.90;;;;;;5081591;28;20270;-39
2024/01/23 01:37:21;;;;;;;24.48;4.43;;;7.10;99.90;;;;;;5080636;28;20186;-42
2024/01/23 01:39:47;;;;;;;27.48;4.20;;;7.10;99.90;;;;;;5080473;28;20205;-42
2024/01/23 01:42:12;;;;;;;22.25;4.25;;;7.10;99.90;;;;;;5081066;28;20235;-38
2024/01/23 01:44:38;;;;;;;29.00;4.45;;;7.10;99.90;;;;;;5081773;28;20193;-41
2024/01/23 01:47:05;;;;;;;16.90;4.28;;;7.00;99.90;;;;;;5081777;28;20617;-43
2024/01/23 01:49:31;;;;;;;20.38;4.05;;;7.00;99.90;;;;;;5080584;28;20604;-39
2024/01/23 01:51:58;;;;;;;23.25;3.80;;;7.00;99.90;;;;;;5081691;28;20178;-39
2024/01/23 01:54:26;;;;;;;26.30;4.85;;;7.00;99.90;;;;;;5080609;28;20193;-38
2024/01/23 01:56:52;;;;;;;29.58;4.85;;;6.90;99.90;;;;;;5080450;28;20190;-40
2024/01/23 01:59:20;;;;;;;13.48;3.70;;;6.90;99.90;;;;;;5081457;28;20770;-47
2024/01/23 02:01:46;;;;;;;23.65;4.15;;;6.90;99.90;;;;;;5081082;28;20632;-47
2024/01/23 02:04:13;;;;;;;30.15;4.65;;;6.90;99.90;;;;;;5096977;28;20669;-40
2024/01/23 02:06:38;;;;;;;22.48;4.60;;;6.90;99.90;;;;;;5081250;28;20296;-41
2024/01/23 02:09:05;;;;;;;18.70;3.40;;;6.90;99.90;;;;;;5081325;28;20193;-45
2024/01/23 02:11:31;;;;;;;20.35;3.72;;;6.90;99.90;;;;;;5081326;28;20637;-40
2024/01/23 02:13:58;;;;;;;25.92;4.88;;;6.90;99.90;;;;;;5062979;28;20273;-39
2024/01/23 02:16:24;;;;;;;26.30;4.32;;;6.90;99.90;;;;;;5081562;28;20182;-41
2024/01/23 02:18:50;;;;;;;16.42;3.70;;;6.90;99.90;;;;;;5080962;28;20204;-42
2024/01/23 02:21:16;;;;;;;18.80;3.53;;;6.80;99.90;;;;;;5079813;28;20205;-40
2024/01/23 02:23:42;;;;;;;28.17;4.90;;;6.80;99.90;;;;;;5081111;28;20205;-41
2024/01/23 02:26:08;;;;;;;29.02;5.38;;;6.80;99.90;;;;;;5080942;28;21037;-41
2024/01/23 02:28:34;;;;;;;22.02;3.65;;;6.80;99.90;;;;;;5079767;28;20197;-43
2024/01/23 02:30:59;;;;;;;38.70;4.53;;;6.80;99.90;;;;;;5079600;28;20279;-42
2024/01/23 02:33:25;;;;;;;26.13;4.65;;;6.90;99.90;;;;;;5080968;28;20192;-43
2024/01/23 02:35:51;;;;;;;21.23;3.70;;;6.80;99.90;;;;;;5079416;28;20193;-44
2024/01/23 02:38:17;;;;;;;36.15;5.13;;;6.90;99.90;;;;;;5081129;28;20190;-41
2024/01/23 02:40:43;;;;;;;29.65;4.70;;;7.00;99.90;;;;;;5079436;28;21484;-46
2024/01/23 02:43:09;;;;;;;24.85;4.28;;;7.00;99.90;;;;;;5078808;28;20194;-42
2024/01/23 02:45:35;;;;;;;29.17;5.38;;;7.10;99.90;;;;;;5080978;28;20665;-41
2024/01/23 02:48:01;;;;;;;32.80;4.95;;;7.10;99.90;;;;;;5081177;28;20217;-39
2024/01/23 02:50:29;;;;;;;33.05;4.50;;;7.20;99.90;;;;;;5079225;28;20739;-41
2024/01/23 02:52:55;;;;;;;27.63;4.22;;;7.20;99.90;;;;;;5080963;28;20178;-41
2024/01/23 02:55:20;;;;;;;30.45;5.15;;;7.20;99.90;;;;;;5079910;28;20258;-42
2024/01/23 02:57:46;;;;;;;26.33;5.00;;;7.30;99.90;;;;;;5080784;28;20193;-42
2024/01/23 03:00:13;;;;;;;23.65;4.10;;;7.30;99.90;;;;;;5081053;28;20238;-40
2024/01/23 03:02:38;;;;;;;31.67;5.38;;;7.40;99.90;;;;;;5079495;28;20231;-43
2024/01/23 03:05:05;;;;;;;27.30;4.68;;;7.40;99.90;;;;;;5080938;28;20591;-38
2024/01/23 03:07:31;;;;;;;35.20;5.40;;;7.40;99.90;;;;;;5080549;28;20193;-45
2024/01/23 03:09:57;;;;;;;30.73;5.07;;;7.40;99.90;;;;;;5080921;28;20174;-40
2024/01/23 03:12:23;;;;;;;30.48;5.25;;;7.40;99.90;;;;;;5080714;28;20273;-45
2024/01/23 03:14:50;;;;;;;35.45;4.80;;;7.40;99.90;;;;;;5082962;28;20190;-45
2024/01/23 03:17:17;;;;;;;24.35;5.28;;;7.40;99.90;;;;;;5082889;28;20181;-41
2024/01/23 03:19:44;;;;;;;28.33;5.07;;;7.40;99.90;;;;;;5084474;28;20186;-45
2024/01/23 03:22:10;;;;;;;30.80;5.18;;;7.40;99.90;;;;;;5084658;28;20185;-42
2024/01/23 03:24:40;;;;;;;32.72;5.15;;;7.40;99.90;;;;;;5084570;28;20174;-45
2024/01/23 03:27:06;;;;;;;37.53;5.38;;;7.50;99.90;;;;;;5084487;28;20248;-41
2024/01/23 03:29:41;;;;;;;33.90;5.05;;;7.50;99.90;;;;;;5083037;28;20226;-43
2024/01/23 03:32:08;;;;;;;31.45;5.38;;;7.50;99.90;;;;;;5084175;28;20181;-41
2024/01/23 03:34:35;;;;;;;33.85;5.90;;;7.50;99.90;;;;;;5082817;28;20260;-39
2024/01/23 03:37:01;;;;;;;34.20;5.85;;;7.50;99.90;;;;;;5084484;28;20696;-42
2024/01/23 03:39:28;;;;;;;33.90;6.30;;;7.50;99.90;;;;;;5082572;28;20272;-43
2024/01/23 03:41:54;;;;;;;35.42;5.32;;;7.50;99.90;;;;;;5082759;28;20197;-43
2024/01/23 03:44:23;;;;;;;30.67;5.43;;;7.60;99.90;;;;;;5083647;28;20197;-39
2024/01/23 03:46:50;;;;;;;25.92;4.93;;;7.60;99.90;;;;;;5083859;28;20221;-43
2024/01/23 03:49:15;;;;;;;28.23;4.57;;;7.60;99.90;;;;;;5083277;28;20182;-41
2024/01/23 03:51:41;;;;;;;28.02;5.65;;;7.60;99.90;;;;;;5084226;28;20184;-41
2024/01/23 03:54:07;;;;;;;25.27;4.57;;;7.60;99.90;;;;;;5083755;28;20197;-38
2024/01/23 03:56:33;;;;;;;38.22;5.63;;;7.60;99.90;;;;;;5083555;28;20194;-42
2024/01/23 03:58:59;;;;;;;32.08;5.13;;;7.60;99.90;;;;;;5083295;28;20186;-42
2024/01/23 04:01:25;;;;;;;35.85;5.30;;;7.70;99.90;;;;;;5083606;28;20284;-43
2024/01/23 04:03:51;;;;;;;32.38;5.10;;;7.70;99.90;;;;;;5083386;28;20198;-41
2024/01/23 04:06:17;;;;;;;34.28;6.20;;;7.70;99.90;;;;;;5083938;28;20213;-44
2024/01/23 04:08:43;;;;;;;37.65;5.55;;;7.70;99.90;;;;;;5083269;28;20231;-39
2024/01/23 04:11:09;;;;;;;35.60;5.60;;;7.80;99.90;;;;;;5082239;28;20189;-42
2024/01/23 04:13:36;;;;;;;29.20;4.93;;;7.70;99.90;;;;;;5064730;28;20213;-43
2024/01/23 04:16:04;;;;;;;30.27;5.55;;;7.80;99.90;;;;;;5081799;28;20563;-40
2024/01/23 04:18:30;;;;;;;28.45;5.60;;;7.80;99.90;;;;;;5083368;28;20189;-40
2024/01/23 04:20:56;;;;;;;34.83;5.40;;;7.90;99.90;;;;;;5083325;28;20186;-41
2024/01/23 04:23:22;;;;;;;29.77;5.38;;;7.90;99.90;;;;;;5082985;28;20198;-43
2024/01/23 04:25:48;;;;;;;34.95;6.30;;;7.90;99.90;;;;;;5081235;28;20214;-39
2024/01/23 04:28:14;;;;;;;24.92;5.25;;;7.90;99.90;;;;;;5083359;28;20642;-39
2024/01/23 04:30:40;;;;;;;33.45;5.90;;;7.90;99.90;;;;;;5064710;28;20222;-44
2024/01/23 04:33:06;;;;;;;32.50;6.10;;;7.90;99.90;;;;;;5082999;28;20581;-41
2024/01/23 04:35:32;;;;;;;41.80;5.88;;;7.90;99.90;;;;;;5082915;28;20268;-42
2024/01/23 04:37:58;;;;;;;37.85;5.78;;;7.90;99.90;;;;;;5082862;28;20186;-45
2024/01/23 04:40:24;;;;;;;31.08;4.70;;;8.00;99.90;;;;;;5082831;28;20684;-39
2024/01/23 04:42:50;;;;;;;32.83;5.75;;;8.00;99.90;;;;;;5082881;28;20200;-40
2024/01/23 04:45:16;;;;;;;33.15;6.18;;;8.00;99.90;;;;;;5083010;28;20730;-39
2024/01/23 04:47:42;;;;;;;31.38;5.10;;;8.00;99.90;;;;;;5082719;28;20251;-42
2024/01/23 04:50:08;;;;;;;31.13;5.30;;;8.10;99.90;;;;;;5081333;28;20198;-47
2024/01/23 04:52:34;;;;;;;34.63;6.40;;;8.10;99.90;;;;;;5082934;28;21661;-39
2024/01/23 04:55:00;;;;;;;36.55;5.22;;;8.10;99.90;;;;;;5082904;28;20190;-42
2024/01/23 04:57:31;;;;;;;34.03;6.75;;;8.10;99.90;;;;;;5082778;28;20194;-39
2024/01/23 04:59:58;;;;;;;34.42;5.80;;;8.10;99.90;;;;;;5080792;28;20642;-40
2024/01/23 05:02:24;;;;;;;33.58;4.80;;;8.10;99.90;;;;;;5080779;28;20237;-42
2024/01/23 05:04:50;;;;;;;41.13;4.93;;;8.10;99.90;;;;;;5080770;28;20190;-41
2024/01/23 05:07:15;;;;;;;27.00;4.88;;;8.10;99.90;;;;;;5081973;28;20267;-38
2024/01/23 05:09:42;;;;;;;31.42;5.47;;;8.20;99.90;;;;;;5082558;28;20194;-43
2024/01/23 05:12:09;;;;;;;27.15;4.70;;;8.20;99.90;;;;;;5081385;28;20236;-38
2024/01/23 05:14:34;;;;;;;33.45;6.43;;;8.20;99.90;;;;;;5082528;28;20267;-43
2024/01/23 05:17:00;;;;;;;36.28;6.18;;;8.20;99.90;;;;;;5081087;28;20756;-40
2024/01/23 05:19:27;;;;;;;26.13;4.70;;;8.20;99.90;;;;;;5082006;28;20238;-44
2024/01/23 05:21:53;;;;;;;33.97;5.05;;;8.10;99.90;;;;;;5081769;28;20351;-40
2024/01/23 05:24:18;;;;;;;39.45;6.03;;;8.20;99.90;;;;;;5081765;28;20284;-42
2024/01/23 05:26:44;;;;;;;37.05;5.95;;;8.20;99.90;;;;;;5082159;28;20218;-41
2024/01/23 05:29:10;;;;;;;37.58;5.88;;;8.10;99.90;;;;;;5079913;28;20560;-43
2024/01/23 05:31:36;;;;;;;38.17;5.93;;;8.10;99.90;;;;;;5081601;28;20193;-42
2024/01/23 05:34:02;;;;;;;37.85;6.00;;;8.10;99.90;;;;;;5079395;28;20987;-42
2024/01/23 05:36:28;;;;;;;36.10;5.45;;;8.10;99.90;;;;;;5081045;28;20194;-42
2024/01/23 05:38:54;;;;;;;32.70;5.85;;;8.00;99.90;;;;;;5081993;28;20186;-39
2024/01/23 05:41:19;;;;;;;30.13;5.82;;;8.00;99.90;;;;;;5079278;28;20190;-44
2024/01/23 05:43:46;;;;;;;41.10;6.30;;;8.00;99.90;;;;;;5082049;28;20217;-43
2024/01/23 05:46:11;;;;;;;32.00;6.18;;;7.90;99.90;;;;;;5080025;28;20224;-42
2024/01/23 05:48:37;;;;;;;35.22;6.55;;;7.90;99.90;;;;;;5082041;28;20185;-44
2024/01/23 05:51:03;;;;;;;38.30;5.40;;;7.90;99.90;;;;;;5080955;28;20186;-43
2024/01/23 05:53:29;;;;;;;35.55;6.97;;;7.90;99.90;;;;;;5082328;28;20560;-41
2024/01/23 05:55:55;;;;;;;43.10;7.70;;;7.80;99.90;;;;;;5081913;28;20215;-39
2024/01/23 05:58:21;;;;;;;38.70;6.97;;;7.80;99.90;;;;;;5080784;28;20202;-50
2024/01/23 06:00:47;;;;;;;37.95;6.53;;;7.70;99.90;;;;;;5081820;28;20222;-38
2024/01/23 06:03:13;;;;;;;45.88;8.25;;;7.70;99.90;;;;;;5082614;28;20209;-41
2024/01/23 06:05:38;;;;;;;53.90;7.32;;;7.60;99.90;;;;;;5081710;28;20301;-40
2024/01/23 06:08:05;;;;;;;43.35;7.43;;;7.70;99.90;;;;;;5082296;28;20182;-39
2024/01/23 06:10:30;;;;;;;48.90;7.53;;;7.60;99.90;;;;;;5082013;28;20186;-41
2024/01/23 06:12:56;;;;;;;42.85;6.15;;;7.60;99.90;;;;;;5080588;28;20188;-40
2024/01/23 06:15:22;;;;;;;48.22;6.95;;;7.60;99.90;;;;;;5077978;28;20190;-42
2024/01/23 06:17:48;;;;;;;37.17;6.53;;;7.50;99.90;;;;;;5081830;28;20548;-40
2024/01/23 06:20:14;;;;;;;43.30;8.00;;;7.50;99.90;;;;;;5080472;28;20186;-42
2024/01/23 06:22:40;;;;;;;36.38;6.22;;;7.40;99.90;;;;;;5079849;28;20543;-43
2024/01/23 06:25:08;;;;;;;46.75;7.38;;;7.40;99.90;;;;;;5081806;28;20584;-44
2024/01/23 06:27:35;;;;;;;39.47;8.02;;;7.40;99.90;;;;;;5081078;28;20182;-39
2024/01/23 06:30:02;;;;;;;45.95;6.88;;;7.30;99.90;;;;;;5081630;28;20232;-39
2024/01/23 06:32:28;;;;;;;38.85;7.18;;;7.30;99.90;;;;;;5082138;28;20684;-41
2024/01/23 06:34:54;;;;;;;58.22;8.98;;;7.30;99.90;;;;;;5081318;28;20288;-42
2024/01/23 06:37:20;;;;;;;42.85;7.13;;;7.20;99.90;;;;;;5081459;28;20319;-43
2024/01/23 06:39:47;;;;;;;43.67;7.10;;;7.20;99.90;;;;;;5080463;28;20669;-49
2024/01/23 06:42:13;;;;;;;36.85;7.13;;;7.20;99.90;;;;;;5079552;28;20181;-40
2024/01/23 06:44:39;;;;;;;47.75;7.93;;;7.10;99.90;;;;;;5081918;28;20197;-40
2024/01/23 06:47:06;;;;;;;40.67;7.82;;;7.10;99.90;;;;;;5069045;28;20214;-44
2024/01/23 06:49:32;;;;;;;51.17;6.95;;;7.00;99.90;;;;;;5084600;28;20177;-46
2024/01/23 06:51:58;;;;;;;44.83;7.32;;;7.00;99.90;;;;;;5085178;28;20194;-40
2024/01/23 06:54:23;;;;;;;56.88;7.97;;;7.00;99.90;;;;;;5084694;28;20230;-42
2024/01/23 06:56:49;;;;;;;47.10;7.53;;;7.00;99.90;;;;;;5084829;28;20200;-45
2024/01/23 06:59:15;;;;;;;36.88;7.68;;;7.00;99.90;;;;;;5080575;28;20545;-42
2024/01/23 07:01:41;;;;;;;50.10;7.72;;;7.00;99.90;;;;;;5085189;28;20190;-41
2024/01/23 07:04:07;;;;;;;46.55;7.65;;;6.90;99.90;;;;;;5085075;28;20373;-45
2024/01/23 07:06:34;;;;;;;52.67;8.10;;;6.90;99.90;;;;;;5085511;28;20768;-38
2024/01/23 07:08:59;;;;;;;44.03;7.22;;;6.90;99.90;;;;;;5072851;28;20550;-43
2024/01/23 07:11:26;;;;;;;44.63;6.72;;;6.90;99.90;;;;;;5083242;28;20170;-46
2024/01/23 07:13:52;;;;;;;38.00;6.72;;;6.80;99.90;;;;;;5084076;28;20548;-43
2024/01/23 07:16:19;;;;;;;49.83;7.53;;;6.80;99.90;;;;;;5083702;28;20242;-39
2024/01/23 07:18:45;;;;;;;50.03;6.63;;;6.80;99.90;;;;;;5083871;28;20301;-47
2024/01/23 07:21:12;;;;;;;46.63;7.90;;;6.70;99.90;;;;;;5083608;28;20216;-41
2024/01/23 07:23:38;;;;;;;48.67;7.63;;;6.70;99.90;;;;;;5067218;28;20193;-39
2024/01/23 07:26:04;;;;;;;40.78;6.43;;;6.70;99.90;;;;;;5084398;28;20246;-43
2024/01/23 07:28:31;;;;;;;53.53;7.32;;;6.70;99.90;;;;;;5083069;28;20201;-42
2024/01/23 07:30:57;;;;;;;40.35;7.40;;;6.60;99.90;;;;;;5083662;28;20321;-35
2024/01/23 07:33:22;;;;;;;45.17;8.05;;;6.70;99.90;;;;;;5083998;28;20269;-41
2024/01/23 07:35:50;;;;;;;41.95;7.75;;;6.60;99.90;;;;;;5083520;28;20308;-44
2024/01/23 07:38:17;;;;;;;47.30;9.20;;;6.60;99.90;;;;;;5048787;28;20213;-38
2024/01/23 07:40:43;;;;;;;47.13;7.78;;;6.60;99.90;;;;;;5082546;28;20221;-41
2024/01/23 07:43:09;;;;;;;51.38;8.15;;;6.60;99.90;;;;;;5083542;28;20668;-39
2024/01/23 07:45:35;;;;;;;61.90;9.90;;;6.60;99.90;;;;;;5083431;28;20210;-39
2024/01/23 07:48:01;;;;;;;54.20;8.75;;;6.70;99.90;;;;;;5083959;28;20189;-40
2024/01/23 07:50:27;;;;;;;46.35;7.85;;;6.60;99.90;;;;;;5082018;28;20186;-37
2024/01/23 07:52:56;;;;;;;42.83;7.70;;;6.60;99.90;;;;;;5083405;28;20190;-41
2024/01/23 07:55:24;;;;;;;42.22;7.13;;;6.70;99.90;;;;;;5081328;28;20190;-38
2024/01/23 07:57:50;;;;;;;62.35;7.95;;;6.60;99.90;;;;;;5048814;28;20220;-41
2024/01/23 08:00:18;;;;;;;43.45;7.55;;;6.60;99.90;;;;;;5064631;28;20281;-40
2024/01/23 08:02:45;;;;;;;43.63;7.45;;;6.60;99.90;;;;;;5083014;28;20268;-40
2024/01/23 08:05:11;;;;;;;51.05;7.90;;;6.70;99.90;;;;;;5081638;28;20565;-45
2024/01/23 08:07:38;;;;;;;44.10;7.45;;;6.70;99.90;;;;;;5083409;28;20185;-40
2024/01/23 08:10:04;;;;;;;51.28;7.75;;;6.70;99.90;;;;;;5083463;28;20192;-43
2024/01/23 08:12:30;;;;;;;60.90;8.90;;;6.70;99.90;;;;;;5081780;28;20197;-43
2024/01/23 08:14:56;;;;;;;46.33;7.45;;;6.70;99.90;;;;;;5081680;28;20717;-42
2024/01/23 08:17:22;;;;;;;46.58;7.40;;;6.70;99.90;;;;;;5082189;28;20193;-43
2024/01/23 08:19:49;;;;;;;51.17;8.25;;;6.70;99.90;;;;;;5083064;28;20280;-44
2024/01/23 08:22:15;;;;;;;56.38;7.88;;;6.70;99.90;;;;;;5083265;28;20200;-39
2024/01/23 08:24:41;;;;;;;56.40;8.13;;;6.70;99.90;;;;;;5082933;28;20198;-41
2024/01/23 08:27:07;;;;;;;66.43;8.73;;;6.70;99.90;;;;;;5083221;28;20218;-38
2024/01/23 08:29:34;;;;;;;59.42;9.40;;;6.80;99.90;;;;;;5081897;28;20218;-40
2024/01/23 08:32:00;;;;;;;50.88;7.25;;;6.80;99.90;;;;;;5081088;28;20234;-41
2024/01/23 08:34:26;;;;;;;45.05;7.22;;;6.80;99.90;;;;;;5081768;28;20229;-40
2024/01/23 08:36:52;;;;;;;41.58;7.20;;;6.80;99.90;;;;;;5081808;28;20218;-42
2024/01/23 08:39:18;;;;;;;47.80;7.20;;;6.80;99.90;;;;;;5082856;28;20205;-41
2024/01/23 08:41:44;;;;;;;46.45;7.78;;;6.80;99.90;;;;;;5082984;28;20240;-38
2024/01/23 08:44:10;;;;;;;47.85;8.13;;;6.80;99.90;;;;;;5082544;28;20748;-38
2024/01/23 08:46:36;;;;;;;45.80;6.78;;;6.90;99.90;;;;;;5082494;28;20271;-41
2024/01/23 08:49:03;;;;;;;50.28;7.75;;;6.90;99.90;;;;;;5081428;28;20198;-38
2024/01/23 08:51:29;;;;;;;47.15;7.47;;;6.80;99.90;;;;;;5081449;28;20272;-41
2024/01/23 08:53:55;;;;;;;59.15;8.20;;;6.90;99.90;;;;;;5083117;28;20182;-38
2024/01/23 08:56:23;;;;;;;42.17;7.70;;;6.90;99.90;;;;;;5082816;28;20190;-41
2024/01/23 08:58:49;;;;;;;47.45;9.77;;;6.90;99.90;;;;;;5067619;28;21045;-42
2024/01/23 09:01:16;;;;;;;46.20;7.38;;;6.90;99.90;;;;;;5082443;28;20196;-44
2024/01/23 09:03:42;;;;;;;42.88;7.03;;;7.00;99.90;;;;;;5081679;28;20197;-41
2024/01/23 09:06:09;;;;;;;44.20;6.60;;;7.00;99.90;;;;;;5082457;28;20300;-40
2024/01/23 09:08:36;;;;;;;46.10;7.00;;;7.00;99.90;;;;;;5081815;28;20205;-39
2024/01/23 09:11:02;;;;;;;49.60;8.52;;;7.00;99.90;;;;;;5081526;28;20182;-39
2024/01/23 09:13:31;;;;;;;44.63;7.45;;;7.10;99.90;;;;;;5079026;28;20212;-42
2024/01/23 09:16:01;;;;;;;50.92;7.75;;;7.10;99.90;;;;;;5082203;28;20239;-42
2024/01/23 09:18:30;;;;;;;40.55;7.43;;;7.10;99.90;;;;;;5081103;28;20280;-35
2024/01/23 09:20:58;;;;;;;57.35;7.78;;;7.10;99.90;;;;;;5081739;28;20190;-43
2024/01/23 09:23:24;;;;;;;46.50;7.30;;;7.10;99.90;;;;;;5080310;28;20200;-45
2024/01/23 09:25:51;;;;;;;40.17;7.03;;;7.20;99.90;;;;;;5082127;28;20248;-47
2024/01/23 09:28:17;;;;;;;40.80;7.60;;;7.20;99.90;;;;;;5081238;28;20717;-43
2024/01/23 09:30:43;;;;;;;57.72;7.88;;;7.20;99.90;;;;;;5080552;28;20222;-41
2024/01/23 09:33:09;;;;;;;43.22;7.25;;;7.20;99.90;;;;;;5081195;28;20229;-39
2024/01/23 09:35:36;;;;;;;40.45;6.32;;;7.30;99.90;;;;;;5080608;28;20190;-41
2024/01/23 09:38:03;;;;;;;37.10;6.63;;;7.40;99.90;;;;;;5080152;28;20280;-42
2024/01/23 09:40:29;;;;;;;49.10;6.55;;;7.40;99.90;;;;;;5063048;28;20208;-44
2024/01/23 09:42:57;;;;;;;45.20;6.95;;;7.40;99.90;;;;;;5077845;28;20239;-40
2024/01/23 09:45:31;;;;;;;40.33;7.13;;;7.40;99.90;;;;;;5081807;28;20384;-39
2024/01/23 09:47:57;;;;;;;45.63;8.02;;;7.50;99.90;;;;;;5080830;28;20200;-40
2024/01/23 09:50:27;;;;;;;42.50;7.45;;;7.50;99.90;;;;;;5080698;28;20634;-41
2024/01/23 09:52:54;;;;;;;48.05;7.00;;;7.50;99.90;;;;;;5080700;28;22144;-47
2024/01/23 09:55:20;;;;;;;51.85;7.18;;;7.60;99.90;;;;;;5081331;28;20182;-38
2024/01/23 09:57:48;;;;;;;44.72;7.82;;;7.70;99.90;;;;;;5081169;28;20251;-40
2024/01/23 10:00:14;;;;;;;47.10;7.43;;;7.70;99.90;;;;;;5080020;28;20205;-39
2024/01/23 10:02:41;;;;;;;50.47;13.38;;;7.70;99.90;;;;;;5079747;28;20235;-41
2024/01/23 10:05:09;;;;;;;49.17;8.50;;;7.80;99.90;;;;;;5079803;28;20186;-40
2024/01/23 10:07:36;;;;;;;39.38;6.57;;;7.80;99.90;;;;;;5081342;28;20267;-41
2024/01/23 10:10:09;;;;;;;40.85;6.60;;;7.80;99.90;;;;;;5079874;28;20198;-43
2024/01/23 10:12:35;;;;;;;45.63;7.20;;;7.80;99.90;;;;;;5079572;28;20269;-39
2024/01/23 10:15:01;;;;;;;49.35;7.88;;;7.90;99.90;;;;;;5081203;28;20281;-46
2024/01/23 10:17:27;;;;;;;41.95;7.60;;;7.90;99.90;;;;;;5081455;28;20193;-40
2024/01/23 10:19:53;;;;;;;49.03;7.13;;;8.00;99.90;;;;;;5079829;28;20205;-38
2024/01/23 10:22:19;;;;;;;48.85;7.43;;;8.00;99.90;;;;;;5080988;28;20193;-38
2024/01/23 10:24:45;;;;;;;50.30;6.65;;;8.00;99.90;;;;;;5079455;28;20293;-40
2024/01/23 10:27:10;;;;;;;39.72;6.80;;;8.10;99.90;;;;;;5080500;28;20225;-44
2024/01/23 10:29:36;;;;;;;40.83;6.35;;;8.10;99.90;;;;;;5079420;28;20661;-39
2024/01/23 10:32:06;;;;;;;54.33;7.30;;;8.10;99.90;;;;;;5080503;28;20213;-40
2024/01/23 10:34:32;;;;;;;43.50;6.40;;;8.20;99.90;;;;;;5080660;28;20237;-41
2024/01/23 10:36:58;;;;;;;41.47;7.55;;;8.20;99.90;;;;;;5080487;28;20673;-41
2024/01/23 10:39:27;;;;;;;48.70;7.20;;;8.30;99.90;;;;;;5080502;28;20193;-40
2024/01/23 10:41:53;;;;;;;44.15;6.40;;;8.30;99.90;;;;;;5078757;28;20193;-40
2024/01/23 10:44:28;;;;;;;38.55;7.10;;;8.40;99.90;;;;;;5080231;28;20196;-42
2024/01/23 10:46:55;;;;;;;39.70;7.10;;;8.40;99.90;;;;;;5078122;28;20216;-44
2024/01/23 10:49:22;;;;;;;34.25;6.75;;;8.50;99.90;;;;;;5080054;28;20217;-42
2024/01/23 10:51:51;;;;;;;51.58;6.85;;;8.50;99.90;;;;;;5045751;28;20247;-45
2024/01/23 10:54:23;;;;;;;40.17;6.68;;;8.50;99.90;;;;;;5080186;28;20182;-42
2024/01/23 10:56:53;;;;;;;49.65;6.88;;;8.60;99.90;;;;;;5079626;28;21185;-40
2024/01/23 10:59:25;;;;;;;50.72;6.95;;;8.60;99.90;;;;;;5062668;28;20273;-40
2024/01/23 11:01:56;;;;;;;44.65;7.80;;;8.60;99.90;;;;;;5078837;28;20293;-45
2024/01/23 11:04:22;;;;;;;45.15;8.15;;;8.60;99.90;;;;;;5080158;28;20198;-40
2024/01/23 11:07:10;;;;;;;36.08;7.07;;;8.70;99.90;;;;;;5079362;28;20236;-42
2024/01/23 11:10:08;;;;;;;40.40;5.90;;;8.70;99.90;;;;;;5061685;28;20182;-39
2024/01/23 11:13:02;;;;;;;41.35;7.22;;;8.70;99.90;;;;;;5071474;28;20194;-47
2024/01/23 11:15:28;;;;;;;45.97;6.80;;;8.70;99.90;;;;;;5077567;28;20186;-43
2024/01/23 11:18:20;;;;;;;49.85;6.80;;;8.70;99.90;;;;;;5080841;28;20279;-43
2024/01/23 11:21:03;;;;;;;42.22;6.65;;;8.80;99.90;;;;;;5080134;28;20277;-44
2024/01/23 11:23:34;;;;;;;44.45;6.95;;;8.80;99.90;;;;;;5061255;28;20194;-47
2024/01/23 11:26:12;;;;;;;48.15;6.72;;;8.80;99.90;;;;;;5061827;28;20283;-40
2024/01/23 11:28:38;;;;;;;39.10;6.60;;;8.90;99.90;;;;;;5062259;28;20730;-38
2024/01/23 11:31:16;;;;;;;43.17;6.97;;;8.90;99.90;;;;;;5078647;28;20679;-43
2024/01/23 11:33:42;;;;;;;32.45;6.03;;;8.90;99.90;;;;;;5080073;28;20688;-42
2024/01/23 11:36:12;;;;;;;35.72;5.72;;;8.90;99.90;;;;;;5081845;28;20196;-43
2024/01/23 11:38:47;;;;;;;37.60;6.38;;;8.90;99.90;;;;;;5083661;28;20209;-45
2024/01/23 11:41:24;;;;;;;38.17;6.90;;;8.90;99.90;;;;;;5084167;28;20189;-39
2024/01/23 11:43:52;;;;;;;39.03;6.43;;;8.90;99.90;;;;;;5083816;28;20613;-46
2024/01/23 11:46:23;;;;;;;41.38;6.20;;;8.90;99.90;;;;;;5065848;28;20201;-43
2024/01/23 11:48:51;;;;;;;38.00;5.88;;;8.90;99.90;;;;;;5084179;28;20185;-39
2024/01/23 11:51:17;;;;;;;33.72;5.57;;;8.90;99.90;;;;;;5084101;28;20186;-41
2024/01/23 11:53:45;;;;;;;34.45;5.45;;;9.00;99.90;;;;;;5083252;28;20695;-45
2024/01/23 11:56:12;;;;;;;42.05;6.53;;;9.10;99.90;;;;;;5048571;28;20273;-43
2024/01/23 11:58:40;;;;;;;29.48;5.70;;;9.10;99.90;;;;;;5082999;28;20189;-44
2024/01/23 12:01:07;;;;;;;41.08;6.82;;;9.20;99.90;;;;;;5082158;28;20189;-44
2024/01/23 12:03:34;;;;;;;39.92;6.43;;;9.20;99.90;;;;;;5083178;28;20189;-45
2024/01/23 12:06:02;;;;;;;36.08;5.40;;;9.20;99.90;;;;;;5081842;28;21026;-47
2024/01/23 12:08:28;;;;;;;33.00;5.50;;;9.20;99.90;;;;;;5083197;28;20260;-44
2024/01/23 12:10:58;;;;;;;28.42;6.22;;;9.10;99.90;;;;;;5081093;28;20638;-42
2024/01/23 12:13:24;;;;;;;41.38;6.70;;;9.10;99.90;;;;;;5064694;28;20193;-40
2024/01/23 12:15:52;;;;;;;40.00;6.30;;;9.10;99.90;;;;;;5082727;28;20190;-46
2024/01/23 12:18:21;;;;;;;43.05;6.50;;;9.20;99.90;;;;;;5081888;28;20218;-40
2024/01/23 12:20:54;;;;;;;42.42;6.53;;;9.20;99.90;;;;;;5065181;28;20185;-43
2024/01/23 12:23:20;;;;;;;37.80;5.75;;;9.30;99.90;;;;;;5082773;28;20194;-40
2024/01/23 12:25:47;;;;;;;40.20;6.30;;;9.40;99.90;;;;;;5082484;28;21078;-43
2024/01/23 12:28:14;;;;;;;35.85;6.20;;;9.40;99.90;;;;;;5082380;28;20668;-43
2024/01/23 12:30:41;;;;;;;30.65;5.85;;;9.30;99.90;;;;;;5082707;28;20565;-43
2024/01/23 12:33:11;;;;;;;38.67;6.00;;;9.30;99.90;;;;;;5078318;28;20281;-39
2024/01/23 12:35:37;;;;;;;29.88;5.75;;;9.30;99.90;;;;;;5082599;28;20193;-47
2024/01/23 12:38:03;;;;;;;38.05;5.35;;;9.40;99.90;;;;;;5083017;28;20190;-44
2024/01/23 12:40:29;;;;;;;32.58;5.95;;;9.40;99.90;;;;;;5082899;28;20190;-43
2024/01/23 12:42:56;;;;;;;34.20;5.60;;;9.40;99.90;;;;;;5064130;28;20193;-42
2024/01/23 12:45:23;;;;;;;33.97;5.80;;;9.40;99.90;;;;;;5082024;28;20216;-46
2024/01/23 12:47:50;;;;;;;38.58;6.22;;;9.40;99.90;;;;;;5064560;28;20662;-44